Time;durP1;ratioP1;P1;durP2;ratioP2;P2;SDS_P1;SDS_P2;PMS_P1;PMS_P2;Temp;Humidity;BMP_temperature;BMP_pressure;BME280_temperature;BME280_humidity;BME280_pressure;Samples;Min_cycle;Max_cycle;Signal;HPM_P1;HPM_P2
2021/12/28 00:00:08;;;;;;;13.13;8.20;;;;;;;;;;5090887;28;20035;-77
2021/12/28 00:02:34;;;;;;;12.02;8.43;;;;;;;;;;5089149;28;20103;-78
2021/12/28 00:05:00;;;;;;;13.15;8.63;;;;;;;;;;5089258;28;20488;-72
2021/12/28 00:07:26;;;;;;;11.90;7.55;;;;;;;;;;5090988;28;20024;-75
2021/12/28 00:09:52;;;;;;;13.23;8.02;;;;;;;;;;5090733;28;20024;-69
2021/12/28 00:12:18;;;;;;;13.07;8.30;;;;;;;;;;5090977;28;20020;-73
2021/12/28 00:15:01;;;;;;;13.15;8.57;;;;;;;;;;5090869;28;20020;-79
2021/12/28 00:20:12;;;;;;;14.98;8.65;;;;;;;;;;5078826;28;19973;-72
2021/12/28 00:22:38;;;;;;;13.02;8.13;;;;;;;;;;5070326;28;20021;-78
2021/12/28 00:25:05;;;;;;;14.85;8.65;;;;;;;;;;5069280;28;20089;-75
2021/12/28 00:27:31;;;;;;;13.73;8.73;;;;;;;;;;5070706;28;20382;-76
2021/12/28 00:29:57;;;;;;;12.27;8.25;;;;;;;;;;5070172;28;20024;-68
2021/12/28 00:32:23;;;;;;;12.25;7.68;;;;;;;;;;5070647;28;20052;-69
2021/12/28 00:34:49;;;;;;;16.48;8.80;;;;;;;;;;5070584;28;20426;-72
2021/12/28 00:37:15;;;;;;;12.85;8.02;;;;;;;;;;5069710;28;20027;-68
2021/12/28 00:39:42;;;;;;;13.60;8.35;;;;;;;;;;5070601;28;20025;-73
2021/12/28 00:42:08;;;;;;;14.35;8.00;;;;;;;;;;5070411;28;20020;-71
2021/12/28 00:44:35;;;;;;;13.68;8.52;;;;;;;;;;5070349;28;20043;-72
2021/12/28 00:47:01;;;;;;;14.93;8.88;;;;;;;;;;5069603;28;20021;-69
2021/12/28 00:49:27;;;;;;;14.70;9.38;;;;;;;;;;5089384;28;20135;-67
2021/12/28 00:51:55;;;;;;;13.85;8.68;;;;;;;;;;5090416;28;20031;-64
2021/12/28 00:54:21;;;;;;;13.10;8.35;;;;;;;;;;5075990;28;20039;-74
2021/12/28 00:56:47;;;;;;;15.73;8.65;;;;;;;;;;5070362;28;20025;-76
2021/12/28 00:59:13;;;;;;;14.63;9.35;;;;;;;;;;5070128;28;20016;-70
2021/12/28 01:01:39;;;;;;;16.85;8.95;;;;;;;;;;5069163;28;20029;-70
2021/12/28 01:04:05;;;;;;;15.05;9.73;;;;;;;;;;5087129;28;20035;-72
2021/12/28 01:06:31;;;;;;;20.02;11.02;;;;;;;;;;5090235;28;20020;-72
2021/12/28 01:08:57;;;;;;;17.30;9.00;;;;;;;;;;5090346;28;20020;-74
2021/12/28 01:11:23;;;;;;;20.52;9.52;;;;;;;;;;5089650;28;20031;-71
2021/12/28 01:13:49;;;;;;;17.20;9.95;;;;;;;;;;5092029;28;20024;-74
2021/12/28 01:16:16;;;;;;;19.40;9.60;;;;;;;;;;5094554;28;20105;-73
2021/12/28 01:18:42;;;;;;;15.20;9.77;;;;;;;;;;5093694;28;20048;-74
2021/12/28 01:21:09;;;;;;;15.35;9.90;;;;;;;;;;5093836;28;20047;-70
2021/12/28 01:23:35;;;;;;;16.73;10.30;;;;;;;;;;5093601;28;20031;-74
2021/12/28 01:26:02;;;;;;;17.60;10.32;;;;;;;;;;5093779;28;20024;-73
2021/12/28 01:28:28;;;;;;;15.40;10.25;;;;;;;;;;5092824;28;20494;-74
2021/12/28 01:30:54;;;;;;;17.77;9.65;;;;;;;;;;5093672;28;20028;-69
2021/12/28 01:33:20;;;;;;;16.58;10.90;;;;;;;;;;5093848;28;20024;-76
2021/12/28 01:35:46;;;;;;;20.50;11.05;;;;;;;;;;5093592;28;20020;-71
2021/12/28 01:38:12;;;;;;;16.45;9.80;;;;;;;;;;5092099;28;20086;-74
2021/12/28 01:40:40;;;;;;;19.88;11.40;;;;;;;;;;5093452;28;20087;-75
2021/12/28 01:43:07;;;;;;;19.27;10.98;;;;;;;;;;5093412;28;20035;-76
2021/12/28 01:45:47;;;;;;;18.10;10.75;;;;;;;;;;5092368;28;20049;-75
2021/12/28 01:48:24;;;;;;;18.52;11.07;;;;;;;;;;5082366;28;20020;-76
2021/12/28 01:50:52;;;;;;;19.98;11.30;;;;;;;;;;5073225;28;20054;-69
2021/12/28 01:53:18;;;;;;;19.42;11.63;;;;;;;;;;5073137;28;20021;-68
2021/12/28 01:55:46;;;;;;;17.50;10.88;;;;;;;;;;5073010;28;20047;-75
2021/12/28 01:58:12;;;;;;;19.42;11.63;;;;;;;;;;5073010;28;20047;-74
2021/12/28 02:00:39;;;;;;;20.95;11.38;;;;;;;;;;5073012;28;20373;-75
2021/12/28 02:03:09;;;;;;;18.10;11.05;;;;;;;;;;5073472;28;20638;-72
2021/12/28 02:05:36;;;;;;;21.50;11.40;;;;;;;;;;5072728;28;20362;-72
2021/12/28 02:08:02;;;;;;;16.80;11.48;;;;;;;;;;5072390;28;20028;-65
2021/12/28 02:10:28;;;;;;;19.20;11.18;;;;;;;;;;5072875;28;20016;-73
2021/12/28 02:12:54;;;;;;;20.42;10.70;;;;;;;;;;5072762;28;20021;-70
2021/12/28 02:15:20;;;;;;;22.52;12.30;;;;;;;;;;5072633;28;20024;-73
2021/12/28 02:17:47;;;;;;;16.63;10.30;;;;;;;;;;5072513;28;20055;-70
2021/12/28 02:20:16;;;;;;;16.65;10.45;;;;;;;;;;5072467;28;20060;-71
2021/12/28 02:22:43;;;;;;;15.77;10.55;;;;;;;;;;5072364;28;20040;-74
2021/12/28 02:25:10;;;;;;;19.63;10.65;;;;;;;;;;5072353;28;20035;-71
2021/12/28 02:27:36;;;;;;;18.00;11.35;;;;;;;;;;5072461;28;20066;-72
2021/12/28 02:30:07;;;;;;;17.40;10.63;;;;;;;;;;5071176;28;20094;-73
2021/12/28 02:32:33;;;;;;;17.23;10.93;;;;;;;;;;5071201;28;20116;-77
2021/12/28 02:34:59;;;;;;;20.30;11.73;;;;;;;;;;5072302;28;20025;-73
2021/12/28 02:37:25;;;;;;;18.65;11.05;;;;;;;;;;5072132;28;20021;-75
2021/12/28 02:39:52;;;;;;;19.98;12.23;;;;;;;;;;5072135;28;20362;-76
2021/12/28 02:42:22;;;;;;;19.35;11.75;;;;;;;;;;5072087;28;20020;-77
2021/12/28 02:44:56;;;;;;;22.05;12.23;;;;;;;;;;5071898;28;20086;-77
2021/12/28 02:47:22;;;;;;;24.45;12.38;;;;;;;;;;5072028;28;20456;-72
2021/12/28 02:49:48;;;;;;;18.65;11.75;;;;;;;;;;5070668;28;20027;-69
2021/12/28 02:52:14;;;;;;;17.67;11.52;;;;;;;;;;5071839;28;20028;-74
2021/12/28 02:54:40;;;;;;;19.05;12.23;;;;;;;;;;5070650;28;20035;-72
2021/12/28 02:57:06;;;;;;;20.20;12.20;;;;;;;;;;5072118;28;20031;-72
2021/12/28 02:59:33;;;;;;;22.73;12.65;;;;;;;;;;5070595;28;20066;-74
2021/12/28 03:01:59;;;;;;;19.88;11.90;;;;;;;;;;5071978;28;20059;-71
2021/12/28 03:04:27;;;;;;;20.77;12.45;;;;;;;;;;5071961;28;20043;-71
2021/12/28 03:06:53;;;;;;;21.27;11.75;;;;;;;;;;5071547;28;20484;-74
2021/12/28 03:09:21;;;;;;;20.50;12.85;;;;;;;;;;5071459;28;20109;-75
2021/12/28 03:11:47;;;;;;;20.35;12.73;;;;;;;;;;5071444;28;20473;-73
2021/12/28 03:14:13;;;;;;;20.92;13.00;;;;;;;;;;5071487;28;20028;-75
2021/12/28 03:16:39;;;;;;;18.75;12.00;;;;;;;;;;5071525;28;20907;-73
2021/12/28 03:19:05;;;;;;;20.63;12.88;;;;;;;;;;5070918;28;20428;-73
2021/12/28 03:21:35;;;;;;;18.75;12.68;;;;;;;;;;5071452;28;20021;-75
2021/12/28 03:24:01;;;;;;;19.25;12.30;;;;;;;;;;5071453;28;20040;-70
2021/12/28 03:26:27;;;;;;;21.83;12.63;;;;;;;;;;5072080;28;20545;-72
2021/12/28 03:28:54;;;;;;;20.73;12.60;;;;;;;;;;5071693;28;20056;-73
2021/12/28 03:31:21;;;;;;;18.98;12.10;;;;;;;;;;5071566;28;20175;-71
2021/12/28 03:33:48;;;;;;;21.52;13.45;;;;;;;;;;5070082;28;20013;-69
2021/12/28 03:36:15;;;;;;;21.85;13.43;;;;;;;;;;5069588;28;20358;-73
2021/12/28 03:38:42;;;;;;;24.58;14.32;;;;;;;;;;5071261;28;20092;-73
2021/12/28 03:41:08;;;;;;;22.88;14.82;;;;;;;;;;5071318;28;20047;-73
2021/12/28 03:43:35;;;;;;;23.52;13.82;;;;;;;;;;5071787;28;20024;-76
2021/12/28 03:46:01;;;;;;;22.77;13.93;;;;;;;;;;5069700;28;20078;-73
2021/12/28 03:48:27;;;;;;;23.63;14.38;;;;;;;;;;5073307;28;20021;-73
2021/12/28 03:50:53;;;;;;;23.20;14.07;;;;;;;;;;5071257;28;20025;-70
2021/12/28 03:53:19;;;;;;;24.63;14.68;;;;;;;;;;5071312;28;20043;-72
2021/12/28 03:55:46;;;;;;;22.42;14.18;;;;;;;;;;5069754;28;20131;-72
2021/12/28 03:58:12;;;;;;;23.55;13.88;;;;;;;;;;5070960;28;20017;-75
2021/12/28 04:00:40;;;;;;;22.77;14.25;;;;;;;;;;5071375;28;20024;-74
2021/12/28 04:03:06;;;;;;;28.08;16.30;;;;;;;;;;5070729;28;20025;-69
2021/12/28 04:05:32;;;;;;;23.15;14.32;;;;;;;;;;5070835;28;20035;-74
2021/12/28 04:07:58;;;;;;;22.45;13.70;;;;;;;;;;5071054;28;20024;-74
2021/12/28 04:10:31;;;;;;;22.05;13.20;;;;;;;;;;5069703;28;20095;-68
2021/12/28 04:12:58;;;;;;;22.67;14.32;;;;;;;;;;5070930;28;20104;-66
2021/12/28 04:15:24;;;;;;;25.02;14.50;;;;;;;;;;5070787;28;20098;-73
2021/12/28 04:17:50;;;;;;;20.75;13.98;;;;;;;;;;5071203;28;20384;-69
2021/12/28 04:20:18;;;;;;;25.55;15.05;;;;;;;;;;5070765;28;20059;-72
2021/12/28 04:22:44;;;;;;;26.23;14.75;;;;;;;;;;5070993;28;20477;-73
2021/12/28 04:25:11;;;;;;;26.98;15.18;;;;;;;;;;5070963;28;20527;-74
2021/12/28 04:27:37;;;;;;;26.17;14.40;;;;;;;;;;5070781;28;20020;-73
2021/12/28 04:30:05;;;;;;;25.02;14.93;;;;;;;;;;5070861;28;20074;-72
2021/12/28 04:32:31;;;;;;;27.70;15.48;;;;;;;;;;5070914;28;20021;-74
2021/12/28 04:34:57;;;;;;;27.40;15.52;;;;;;;;;;5071364;28;20032;-73
2021/12/28 04:37:23;;;;;;;23.63;14.93;;;;;;;;;;5070797;28;20027;-73
2021/12/28 04:39:49;;;;;;;24.83;15.70;;;;;;;;;;5070635;28;20021;-71
2021/12/28 04:42:16;;;;;;;29.42;15.88;;;;;;;;;;5070820;28;20017;-74
2021/12/28 04:44:42;;;;;;;27.55;14.80;;;;;;;;;;5070696;28;20087;-73
2021/12/28 04:47:08;;;;;;;25.92;15.15;;;;;;;;;;5070748;28;20369;-65
2021/12/28 04:49:35;;;;;;;27.15;15.10;;;;;;;;;;5073470;28;20081;-72
2021/12/28 04:52:02;;;;;;;24.55;14.77;;;;;;;;;;5075189;28;20024;-67
2021/12/28 04:54:28;;;;;;;30.85;15.15;;;;;;;;;;5074589;28;20016;-71
2021/12/28 04:56:55;;;;;;;24.38;14.13;;;;;;;;;;5074397;28;20556;-72
2021/12/28 04:59:21;;;;;;;25.92;15.13;;;;;;;;;;5074376;28;20451;-72
2021/12/28 05:01:47;;;;;;;27.02;15.10;;;;;;;;;;5074247;28;20029;-72
2021/12/28 05:04:13;;;;;;;29.98;15.15;;;;;;;;;;5074098;28;20066;-72
2021/12/28 05:06:39;;;;;;;23.25;14.35;;;;;;;;;;5074186;28;20036;-67
2021/12/28 05:09:07;;;;;;;25.98;14.90;;;;;;;;;;5074715;28;20028;-71
2021/12/28 05:11:34;;;;;;;21.30;13.57;;;;;;;;;;5074004;28;20032;-70
2021/12/28 05:14:01;;;;;;;27.13;13.95;;;;;;;;;;5074168;28;20031;-72
2021/12/28 05:16:33;;;;;;;23.17;13.35;;;;;;;;;;5074172;28;20048;-70
2021/12/28 05:18:59;;;;;;;24.48;13.43;;;;;;;;;;5073845;28;20040;-71
2021/12/28 05:21:25;;;;;;;25.35;14.35;;;;;;;;;;5073922;28;20092;-69
2021/12/28 05:23:51;;;;;;;19.45;11.60;;;;;;;;;;5073903;28;20111;-73
2021/12/28 05:26:17;;;;;;;20.25;11.93;;;;;;;;;;5074530;28;20023;-72
2021/12/28 05:28:43;;;;;;;22.15;12.23;;;;;;;;;;5073923;28;20029;-73
2021/12/28 05:31:10;;;;;;;21.58;12.63;;;;;;;;;;5073841;28;20016;-72
2021/12/28 05:33:36;;;;;;;21.40;12.55;;;;;;;;;;5073578;28;20044;-68
2021/12/28 05:36:04;;;;;;;21.88;12.18;;;;;;;;;;5073533;28;20029;-73
2021/12/28 05:38:30;;;;;;;22.52;12.05;;;;;;;;;;5072353;28;20017;-72
2021/12/28 05:40:56;;;;;;;21.15;11.30;;;;;;;;;;5073564;28;20024;-74
2021/12/28 05:43:22;;;;;;;21.42;11.68;;;;;;;;;;5074184;28;20021;-67
2021/12/28 05:45:48;;;;;;;18.63;11.25;;;;;;;;;;5073596;28;20040;-71
2021/12/28 05:48:14;;;;;;;20.15;10.48;;;;;;;;;;5085479;28;20380;-67
2021/12/28 05:50:40;;;;;;;18.27;9.77;;;;;;;;;;5093724;28;20024;-69
2021/12/28 05:53:06;;;;;;;19.83;10.98;;;;;;;;;;5093549;28;20020;-71
2021/12/28 05:55:33;;;;;;;19.77;11.30;;;;;;;;;;5093337;28;20016;-72
2021/12/28 05:57:59;;;;;;;17.38;10.35;;;;;;;;;;5093443;28;20488;-65
2021/12/28 06:00:28;;;;;;;18.67;10.48;;;;;;;;;;5092137;28;20020;-68
2021/12/28 06:02:54;;;;;;;20.55;10.98;;;;;;;;;;5093386;28;20024;-70
2021/12/28 06:05:20;;;;;;;19.90;11.52;;;;;;;;;;5093137;28;20039;-71
2021/12/28 06:07:46;;;;;;;19.88;10.93;;;;;;;;;;5093071;28;20059;-67
2021/12/28 06:10:14;;;;;;;20.45;11.65;;;;;;;;;;5093046;28;20073;-66
2021/12/28 06:12:40;;;;;;;19.92;11.68;;;;;;;;;;5093277;28;20020;-71
2021/12/28 06:15:07;;;;;;;19.55;11.40;;;;;;;;;;5091954;28;20122;-74
2021/12/28 06:17:33;;;;;;;19.77;10.82;;;;;;;;;;5091153;28;20038;-68
2021/12/28 06:19:59;;;;;;;18.65;10.25;;;;;;;;;;5092957;28;20393;-69
2021/12/28 06:22:25;;;;;;;19.08;10.73;;;;;;;;;;5093188;28;20103;-71
2021/12/28 06:24:52;;;;;;;16.10;9.75;;;;;;;;;;5091588;28;20119;-72
2021/12/28 06:27:18;;;;;;;18.95;9.68;;;;;;;;;;5092902;28;20104;-73
2021/12/28 06:29:44;;;;;;;20.92;10.27;;;;;;;;;;5093168;28;20102;-73
2021/12/28 06:32:10;;;;;;;17.08;10.23;;;;;;;;;;5092768;28;20137;-76
2021/12/28 06:34:37;;;;;;;18.02;10.35;;;;;;;;;;5091842;28;20560;-73
2021/12/28 06:37:03;;;;;;;15.98;10.27;;;;;;;;;;5092754;28;20031;-76
2021/12/28 06:39:29;;;;;;;15.50;9.05;;;;;;;;;;5092770;28;20027;-73
2021/12/28 06:41:55;;;;;;;19.20;9.82;;;;;;;;;;5092654;28;20024;-77
2021/12/28 06:44:21;;;;;;;16.95;9.98;;;;;;;;;;5092576;28;20123;-78
2021/12/28 06:46:47;;;;;;;15.88;9.48;;;;;;;;;;5091081;28;20076;-77
2021/12/28 06:49:14;;;;;;;16.92;9.30;;;;;;;;;;5071928;28;20682;-78
2021/12/28 06:51:40;;;;;;;16.33;9.40;;;;;;;;;;5085953;28;20028;-74
2021/12/28 06:54:06;;;;;;;14.38;9.20;;;;;;;;;;5092523;28;20048;-75
2021/12/28 06:56:33;;;;;;;15.50;8.77;;;;;;;;;;5092372;28;20031;-77
2021/12/28 06:58:59;;;;;;;14.23;8.93;;;;;;;;;;5090761;28;20023;-72
2021/12/28 07:01:25;;;;;;;15.40;8.55;;;;;;;;;;5092206;28;20024;-72
2021/12/28 07:03:52;;;;;;;13.85;8.02;;;;;;;;;;5091870;28;20420;-72
2021/12/28 07:06:18;;;;;;;14.38;6.45;;;;;;;;;;5090909;28;20031;-72
2021/12/28 07:08:45;;;;;;;15.77;8.27;;;;;;;;;;5091252;28;20020;-72
2021/12/28 07:11:11;;;;;;;14.27;7.93;;;;;;;;;;5091414;28;20023;-72
2021/12/28 07:13:37;;;;;;;13.85;7.68;;;;;;;;;;5092018;28;20027;-73
2021/12/28 07:16:03;;;;;;;13.88;7.30;;;;;;;;;;5092155;28;20492;-72
2021/12/28 07:18:29;;;;;;;12.30;7.45;;;;;;;;;;5088563;28;20028;-75
2021/12/28 07:20:58;;;;;;;10.50;6.40;;;;;;;;;;5072096;28;20104;-74
2021/12/28 07:23:24;;;;;;;14.23;7.57;;;;;;;;;;5071647;28;20063;-74
2021/12/28 07:25:53;;;;;;;13.05;7.28;;;;;;;;;;5072212;28;20066;-74
2021/12/28 07:28:19;;;;;;;11.20;5.85;;;;;;;;;;5071719;28;20408;-70
2021/12/28 07:30:45;;;;;;;10.80;5.88;;;;;;;;;;5071432;28;20031;-79
2021/12/28 07:33:12;;;;;;;10.63;5.78;;;;;;;;;;5070288;28;20027;-77
2021/12/28 07:35:38;;;;;;;10.68;6.20;;;;;;;;;;5071314;28;20012;-78
2021/12/28 07:38:04;;;;;;;11.93;6.00;;;;;;;;;;5071288;28;20020;-74
2021/12/28 07:40:30;;;;;;;11.10;6.25;;;;;;;;;;5070999;28;20668;-76
2021/12/28 07:42:56;;;;;;;11.00;5.75;;;;;;;;;;5071644;28;20516;-75
2021/12/28 07:45:22;;;;;;;10.13;5.88;;;;;;;;;;5071050;28;20032;-75
2021/12/28 07:47:48;;;;;;;9.18;4.97;;;;;;;;;;5080713;28;20454;-76
2021/12/28 07:50:15;;;;;;;8.80;5.50;;;;;;;;;;5089931;28;20031;-70
2021/12/28 07:52:42;;;;;;;9.27;5.82;;;;;;;;;;5091617;28;20469;-74
2021/12/28 07:55:09;;;;;;;8.68;5.75;;;;;;;;;;5091333;28;20540;-72
2021/12/28 07:57:35;;;;;;;9.73;5.28;;;;;;;;;;5091417;28;20024;-72
2021/12/28 08:00:03;;;;;;;10.18;5.35;;;;;;;;;;5089098;28;20032;-69
2021/12/28 08:02:29;;;;;;;10.38;5.60;;;;;;;;;;5090080;28;20044;-70
2021/12/28 08:04:55;;;;;;;11.77;5.45;;;;;;;;;;5091282;28;20119;-76
2021/12/28 08:07:21;;;;;;;10.65;6.07;;;;;;;;;;5091348;28;20016;-74
2021/12/28 08:09:47;;;;;;;11.13;5.25;;;;;;;;;;5091309;28;20095;-74
2021/12/28 08:12:13;;;;;;;10.60;5.53;;;;;;;;;;5090996;28;20020;-72
2021/12/28 08:14:39;;;;;;;10.98;6.22;;;;;;;;;;5090941;28;20016;-68
2021/12/28 08:17:06;;;;;;;9.13;5.20;;;;;;;;;;5090378;28;20080;-72
2021/12/28 08:19:32;;;;;;;10.30;5.90;;;;;;;;;;5091144;28;20493;-69
2021/12/28 08:21:58;;;;;;;9.80;5.88;;;;;;;;;;5091507;28;20028;-72
2021/12/28 08:24:24;;;;;;;9.40;5.90;;;;;;;;;;5095020;28;20035;-68
2021/12/28 08:26:50;;;;;;;9.93;5.80;;;;;;;;;;5095012;28;20032;-72
2021/12/28 08:29:16;;;;;;;9.43;5.63;;;;;;;;;;5093708;28;20027;-69
2021/12/28 08:31:42;;;;;;;9.40;5.68;;;;;;;;;;5095103;28;20107;-71
2021/12/28 08:34:08;;;;;;;10.73;5.45;;;;;;;;;;5094212;28;20020;-75
2021/12/28 08:36:34;;;;;;;12.77;4.80;;;;;;;;;;5095056;28;20031;-73
2021/12/28 08:39:00;;;;;;;13.52;5.65;;;;;;;;;;5093516;28;20366;-69
2021/12/28 08:41:26;;;;;;;20.70;5.75;;;;;;;;;;5094960;28;20097;-64
2021/12/28 08:43:52;;;;;;;14.88;5.25;;;;;;;;;;5094677;28;20372;-72
2021/12/28 08:46:18;;;;;;;16.35;4.85;;;;;;;;;;5094760;28;20024;-66
2021/12/28 08:48:45;;;;;;;13.65;5.57;;;;;;;;;;5093730;28;20056;-75
2021/12/28 08:51:11;;;;;;;15.05;5.38;;;;;;;;;;5093371;28;20113;-72
2021/12/28 08:53:37;;;;;;;11.68;5.13;;;;;;;;;;5093149;28;20020;-70
2021/12/28 08:56:03;;;;;;;14.23;5.47;;;;;;;;;;5094332;28;20024;-70
2021/12/28 08:58:29;;;;;;;10.25;5.13;;;;;;;;;;5094506;28;20031;-71
2021/12/28 09:00:55;;;;;;;11.77;5.68;;;;;;;;;;5094526;28;20518;-72
2021/12/28 09:03:21;;;;;;;10.63;5.18;;;;;;;;;;5094396;28;20110;-65
2021/12/28 09:05:47;;;;;;;8.25;4.82;;;;;;;;;;5093840;28;20086;-66
2021/12/28 09:08:17;;;;;;;8.80;5.13;;;;;;;;;;5092889;28;20020;-74
2021/12/28 09:10:43;;;;;;;9.15;5.07;;;;;;;;;;5094388;28;20107;-66
2021/12/28 09:13:11;;;;;;;7.90;4.38;;;;;;;;;;5094104;28;20099;-70
2021/12/28 09:15:37;;;;;;;8.70;4.65;;;;;;;;;;5094162;28;20020;-68
2021/12/28 09:18:04;;;;;;;11.10;4.90;;;;;;;;;;5093843;28;20476;-70
2021/12/28 09:20:30;;;;;;;11.73;5.28;;;;;;;;;;5093991;28;20073;-66
2021/12/28 09:22:56;;;;;;;8.65;4.70;;;;;;;;;;5093331;28;20503;-67
2021/12/28 09:25:23;;;;;;;8.73;4.90;;;;;;;;;;5093888;28;20035;-64
2021/12/28 09:27:49;;;;;;;9.15;5.45;;;;;;;;;;5094228;28;20059;-66
2021/12/28 09:30:15;;;;;;;8.32;5.07;;;;;;;;;;5094000;28;20020;-66
2021/12/28 09:32:41;;;;;;;7.60;4.70;;;;;;;;;;5093870;28;20052;-69
2021/12/28 09:35:08;;;;;;;7.45;4.50;;;;;;;;;;5091846;28;20093;-70
2021/12/28 09:37:34;;;;;;;9.00;5.32;;;;;;;;;;5093969;28;20024;-66
2021/12/28 09:40:00;;;;;;;9.68;5.07;;;;;;;;;;5092982;28;20055;-63
2021/12/28 09:42:26;;;;;;;11.35;5.60;;;;;;;;;;5093634;28;20067;-67
2021/12/28 09:44:53;;;;;;;10.18;5.53;;;;;;;;;;5092395;28;20036;-70
2021/12/28 09:47:19;;;;;;;9.80;5.50;;;;;;;;;;5088132;28;20021;-72
2021/12/28 09:49:46;;;;;;;12.35;4.60;;;;;;;;;;5073249;28;20017;-69
2021/12/28 09:52:12;;;;;;;16.77;5.38;;;;;;;;;;5071877;28;20484;-71
2021/12/28 09:54:38;;;;;;;15.88;5.70;;;;;;;;;;5073304;28;20099;-82
2021/12/28 09:57:05;;;;;;;16.33;6.30;;;;;;;;;;5073945;28;20008;-83
2021/12/28 09:59:31;;;;;;;16.30;6.35;;;;;;;;;;5073546;28;20492;-85
2021/12/28 10:01:59;;;;;;;16.15;5.95;;;;;;;;;;5073758;28;20023;-86
2021/12/28 10:04:26;;;;;;;22.48;8.27;;;;;;;;;;5073919;28;20040;-69
2021/12/28 10:06:52;;;;;;;16.60;6.43;;;;;;;;;;5073639;28;20103;-71
2021/12/28 10:09:22;;;;;;;15.27;6.32;;;;;;;;;;5073251;28;20055;-71
2021/12/28 10:11:49;;;;;;;11.73;6.40;;;;;;;;;;5073444;28;20021;-66
2021/12/28 10:14:27;;;;;;;17.48;6.03;;;;;;;;;;5077081;28;20043;-73
2021/12/28 10:16:53;;;;;;;14.65;6.25;;;;;;;;;;5091983;28;20024;-67
2021/12/28 10:19:30;;;;;;;10.10;5.85;;;;;;;;;;5092945;28;20043;-73
2021/12/28 10:21:56;;;;;;;9.57;5.50;;;;;;;;;;5092986;28;20629;-66
2021/12/28 10:24:35;;;;;;;11.77;6.28;;;;;;;;;;5092707;28;20036;-69
2021/12/28 10:27:15;;;;;;;12.00;5.63;;;;;;;;;;5091476;28;20120;-77
2021/12/28 10:29:41;;;;;;;10.50;5.78;;;;;;;;;;5092952;28;20099;-71
2021/12/28 10:32:22;;;;;;;9.85;5.82;;;;;;;;;;5092048;28;20020;-74
2021/12/28 10:34:49;;;;;;;11.13;6.00;;;;;;;;;;5092696;28;20377;-70
2021/12/28 10:37:19;;;;;;;11.98;5.95;;;;;;;;;;5092700;28;20016;-76
2021/12/28 10:39:46;;;;;;;13.60;6.43;;;;;;;;;;5091297;28;20393;-66
2021/12/28 10:42:32;;;;;;;9.98;5.65;;;;;;;;;;5092429;28;20024;-68
2021/12/28 10:44:59;;;;;;;10.90;6.38;;;;;;;;;;5092251;28;20071;-74
2021/12/28 10:47:28;;;;;;;9.25;5.47;;;;;;;;;;5085060;28;20020;-68
2021/12/28 10:49:55;;;;;;;13.20;5.60;;;;;;;;;;5072703;28;20078;-75
2021/12/28 10:52:22;;;;;;;9.30;6.10;;;;;;;;;;5072060;28;20481;-75
2021/12/28 10:54:49;;;;;;;10.55;5.97;;;;;;;;;;5072099;28;20032;-79
2021/12/28 10:57:15;;;;;;;9.77;5.38;;;;;;;;;;5072071;28;20044;-69
2021/12/28 10:59:41;;;;;;;10.60;5.93;;;;;;;;;;5070828;28;20459;-69
2021/12/28 11:02:07;;;;;;;9.93;6.28;;;;;;;;;;5071903;28;20028;-68
2021/12/28 11:04:34;;;;;;;10.00;5.28;;;;;;;;;;5070647;28;20043;-79
2021/12/28 11:07:04;;;;;;;12.32;5.38;;;;;;;;;;5072635;28;20056;-75
2021/12/28 11:09:30;;;;;;;10.25;6.18;;;;;;;;;;5071875;28;20028;-79
2021/12/28 11:11:56;;;;;;;11.77;6.13;;;;;;;;;;5071925;28;20063;-72
2021/12/28 11:14:24;;;;;;;8.90;5.10;;;;;;;;;;5071606;28;20380;-70
2021/12/28 11:16:54;;;;;;;9.38;5.15;;;;;;;;;;5071839;28;20036;-76
2021/12/28 11:19:29;;;;;;;9.38;5.47;;;;;;;;;;5069741;28;20632;-78
2021/12/28 11:21:57;;;;;;;9.57;5.28;;;;;;;;;;5071407;28;20078;-76
2021/12/28 11:24:28;;;;;;;11.02;5.93;;;;;;;;;;5080392;28;20043;-73
2021/12/28 11:26:54;;;;;;;9.23;5.82;;;;;;;;;;5090188;28;20480;-75
2021/12/28 11:29:22;;;;;;;10.45;6.00;;;;;;;;;;5091618;28;20472;-77
2021/12/28 11:31:50;;;;;;;10.23;5.55;;;;;;;;;;5091501;28;20024;-73
2021/12/28 11:34:16;;;;;;;9.35;5.55;;;;;;;;;;5091710;28;20373;-70
2021/12/28 11:36:45;;;;;;;10.57;6.03;;;;;;;;;;5091432;28;20533;-76
2021/12/28 11:39:16;;;;;;;8.70;5.40;;;;;;;;;;5086542;28;20039;-68
2021/12/28 11:41:42;;;;;;;8.60;5.55;;;;;;;;;;5071140;28;20035;-75
2021/12/28 11:44:08;;;;;;;8.50;5.28;;;;;;;;;;5071011;28;20044;-76
2021/12/28 11:46:35;;;;;;;11.30;6.00;;;;;;;;;;5075423;28;20442;-75
2021/12/28 11:49:01;;;;;;;10.35;6.20;;;;;;;;;;5089306;28;20036;-74
2021/12/28 11:51:28;;;;;;;10.60;6.18;;;;;;;;;;5091296;28;20023;-75
2021/12/28 11:53:55;;;;;;;11.73;6.50;;;;;;;;;;5090298;28;20098;-72
2021/12/28 11:56:27;;;;;;;10.48;6.22;;;;;;;;;;5086439;28;20016;-77
2021/12/28 11:58:55;;;;;;;11.82;6.85;;;;;;;;;;5070137;28;20097;-74
2021/12/28 12:01:42;;;;;;;11.43;6.60;;;;;;;;;;5070850;28;20532;-75
2021/12/28 12:04:26;;;;;;;9.73;6.00;;;;;;;;;;5070567;28;20032;-69
2021/12/28 12:07:12;;;;;;;10.82;6.97;;;;;;;;;;5071864;28;20086;-76
2021/12/28 12:09:51;;;;;;;13.15;6.97;;;;;;;;;;5071043;28;20023;-84
2021/12/28 12:12:22;;;;;;;12.60;6.93;;;;;;;;;;5072622;28;20087;-79
2021/12/28 12:14:54;;;;;;;12.85;6.97;;;;;;;;;;5088746;28;20035;-86
2021/12/28 12:17:20;;;;;;;;;;;;;;;;;;5093028;28;20020;-89
2021/12/28 12:19:47;;;;;;;9.88;6.15;;;;;;;;;;5092511;28;19916;-91
2021/12/28 12:22:28;;;;;;;12.40;7.68;;;;;;;;;;5091134;28;20048;-75
2021/12/28 12:24:54;;;;;;;12.50;7.72;;;;;;;;;;5088932;28;20489;-76
2021/12/28 12:27:39;;;;;;;10.25;6.00;;;;;;;;;;5087297;28;20108;-75
2021/12/28 12:30:17;;;;;;;13.57;7.80;;;;;;;;;;5088057;28;20035;-78
2021/12/28 12:32:59;;;;;;;10.60;6.20;;;;;;;;;;5090166;28;20024;-69
2021/12/28 12:35:28;;;;;;;11.38;7.53;;;;;;;;;;5090671;28;20023;-73
2021/12/28 12:37:54;;;;;;;13.88;7.47;;;;;;;;;;5090671;28;20042;-73
2021/12/28 12:40:20;;;;;;;13.70;7.75;;;;;;;;;;5090819;28;20016;-74
2021/12/28 12:43:05;;;;;;;12.00;7.75;;;;;;;;;;5090669;28;20028;-74
2021/12/28 12:45:49;;;;;;;11.80;7.22;;;;;;;;;;5090301;28;20036;-77
2021/12/28 12:48:30;;;;;;;14.25;8.15;;;;;;;;;;5077613;28;20086;-76
2021/12/28 12:51:16;;;;;;;12.77;7.53;;;;;;;;;;5070420;28;20466;-74
2021/12/28 12:53:47;;;;;;;11.80;6.93;;;;;;;;;;5065975;28;20036;-71
2021/12/28 12:56:17;;;;;;;12.70;7.45;;;;;;;;;;5080275;28;20032;-73
2021/12/28 12:58:47;;;;;;;11.75;7.47;;;;;;;;;;5088919;28;20032;-71
2021/12/28 13:01:30;;;;;;;15.20;7.95;;;;;;;;;;5090489;28;20024;-75
2021/12/28 13:04:00;;;;;;;12.90;6.90;;;;;;;;;;5088152;28;20048;-76
2021/12/28 13:06:41;;;;;;;10.55;6.13;;;;;;;;;;5088669;28;20744;-77
2021/12/28 13:09:08;;;;;;;11.35;7.00;;;;;;;;;;5090583;28;20023;-75
2021/12/28 13:11:35;;;;;;;11.73;7.45;;;;;;;;;;5094057;28;20058;-76
2021/12/28 13:14:01;;;;;;;10.68;6.05;;;;;;;;;;5094129;28;20012;-79
2021/12/28 13:16:27;;;;;;;13.00;6.78;;;;;;;;;;5095484;28;20031;-87
2021/12/28 13:19:09;;;;;;;11.70;6.97;;;;;;;;;;5095422;28;20048;-79
2021/12/28 13:21:35;;;;;;;12.90;7.78;;;;;;;;;;5087082;28;20028;-81
2021/12/28 13:24:08;;;;;;;9.85;6.10;;;;;;;;;;5073410;28;20020;-82
2021/12/28 13:26:44;;;;;;;10.23;6.07;;;;;;;;;;5073673;28;20068;-81
2021/12/28 13:29:10;;;;;;;13.00;5.68;;;;;;;;;;5073465;28;20021;-73
2021/12/28 13:31:36;;;;;;;14.48;6.65;;;;;;;;;;5072195;28;20029;-75
2021/12/28 13:34:02;;;;;;;9.35;5.53;;;;;;;;;;5073511;28;20082;-81
2021/12/28 13:36:29;;;;;;;8.95;5.95;;;;;;;;;;5073633;28;20031;-73
2021/12/28 13:39:08;;;;;;;8.80;5.78;;;;;;;;;;5072575;28;20024;-65
2021/12/28 13:41:34;;;;;;;8.93;5.38;;;;;;;;;;5073416;28;20035;-67
2021/12/28 13:44:05;;;;;;;9.10;5.32;;;;;;;;;;5073097;28;20056;-66
2021/12/28 13:46:31;;;;;;;9.02;5.20;;;;;;;;;;5073253;28;20025;-81
2021/12/28 13:49:02;;;;;;;10.63;4.80;;;;;;;;;;5091943;28;20020;-79
2021/12/28 13:51:30;;;;;;;7.90;4.90;;;;;;;;;;5093493;28;20026;-80
2021/12/28 13:54:00;;;;;;;8.95;4.80;;;;;;;;;;5092006;28;20031;-75
2021/12/28 13:56:35;;;;;;;8.82;5.05;;;;;;;;;;5091587;28;20516;-74
2021/12/28 13:59:03;;;;;;;8.68;4.60;;;;;;;;;;5091980;28;20032;-82
2021/12/28 14:01:38;;;;;;;7.60;4.50;;;;;;;;;;5091912;28;20396;-72
2021/12/28 14:04:14;;;;;;;8.02;4.65;;;;;;;;;;5092785;28;20020;-73
2021/12/28 14:06:42;;;;;;;7.32;4.10;;;;;;;;;;5091947;28;20502;-72
2021/12/28 14:09:09;;;;;;;7.30;4.28;;;;;;;;;;5093306;28;20347;-81
2021/12/28 14:11:44;;;;;;;6.90;3.70;;;;;;;;;;5093573;28;20024;-84
2021/12/28 14:14:27;;;;;;;6.25;3.95;;;;;;;;;;5091397;28;20027;-73
2021/12/28 14:17:04;;;;;;;14.20;3.55;;;;;;;;;;5093180;28;20472;-71
2021/12/28 14:19:34;;;;;;;7.85;4.00;;;;;;;;;;5091882;28;20044;-82
2021/12/28 14:22:01;;;;;;;7.05;3.60;;;;;;;;;;5092779;28;20031;-83
2021/12/28 14:24:27;;;;;;;5.15;3.20;;;;;;;;;;5092928;28;20028;-83
2021/12/28 14:26:54;;;;;;;6.70;3.60;;;;;;;;;;5091849;28;20028;-83
2021/12/28 14:29:21;;;;;;;8.23;3.63;;;;;;;;;;5092576;28;20031;-83
2021/12/28 14:31:52;;;;;;;6.25;3.17;;;;;;;;;;5093236;28;20426;-77
2021/12/28 14:34:42;;;;;;;19.92;4.00;;;;;;;;;;5093093;28;20024;-81